Time;durP1;ratioP1;P1;durP2;ratioP2;P2;SDS_P1;SDS_P2;PMS_P1;PMS_P2;Temp;Humidity;BMP_temperature;BMP_pressure;BME280_temperature;BME280_humidity;BME280_pressure;Samples;Min_cycle;Max_cycle;Signal;HPM_P1;HPM_P2
2022/09/17 00:02:21;;;;;;;1.57;1.10;;;17.00;57.90;;;;;;5024171;28;20280;-46
2022/09/17 00:04:48;;;;;;;1.87;1.10;;;16.80;58.10;;;;;;5024492;28;20541;-49
2022/09/17 00:07:13;;;;;;;1.53;1.40;;;16.80;58.40;;;;;;5025967;28;20475;-46
2022/09/17 00:09:39;;;;;;;1.00;1.00;;;16.70;58.40;;;;;;5023073;28;20578;-47
2022/09/17 00:12:04;;;;;;;1.23;1.03;;;16.60;58.70;;;;;;5025792;28;20251;-50
2022/09/17 00:14:30;;;;;;;2.80;1.30;;;16.40;59.10;;;;;;5019199;28;20196;-47
2022/09/17 00:16:56;;;;;;;1.30;1.10;;;16.50;59.10;;;;;;5025687;28;20200;-47
2022/09/17 00:19:23;;;;;;;1.20;0.90;;;16.50;58.90;;;;;;5022477;28;20189;-47
2022/09/17 00:21:49;;;;;;;1.53;1.10;;;16.60;58.80;;;;;;5022801;28;20573;-48
2022/09/17 00:24:16;;;;;;;4.00;1.10;;;16.50;58.80;;;;;;5024734;28;20484;-48
2022/09/17 00:26:42;;;;;;;1.43;1.30;;;16.60;58.80;;;;;;5025599;28;20436;-49
2022/09/17 00:29:08;;;;;;;1.07;0.93;;;16.50;58.90;;;;;;5023473;28;20444;-48
2022/09/17 00:31:35;;;;;;;1.50;0.97;;;16.40;58.80;;;;;;5021571;28;20974;-46
2022/09/17 00:34:02;;;;;;;1.40;1.10;;;16.50;58.90;;;;;;5019799;28;20886;-49
2022/09/17 00:36:28;;;;;;;1.10;1.00;;;16.50;58.90;;;;;;5027098;28;20452;-48
2022/09/17 00:38:56;;;;;;;3.07;1.20;;;16.50;58.90;;;;;;5025950;28;20981;-46
2022/09/17 00:41:24;;;;;;;2.30;1.20;;;16.50;58.70;;;;;;5011861;28;20580;-48
2022/09/17 00:43:53;;;;;;;2.03;0.90;;;16.60;58.60;;;;;;5020407;28;20436;-49
2022/09/17 00:46:39;;;;;;;1.90;1.00;;;16.60;58.70;;;;;;5028358;28;20455;-49
2022/09/17 00:49:19;;;;;;;0.97;0.93;;;16.60;58.60;;;;;;5026445;28;20560;-47
2022/09/17 00:51:56;;;;;;;0.93;0.93;;;16.70;58.60;;;;;;5022947;28;20793;-47
2022/09/17 00:54:23;;;;;;;1.40;1.30;;;16.70;58.80;;;;;;5029297;28;20459;-48
2022/09/17 00:56:50;;;;;;;1.20;1.10;;;16.80;58.40;;;;;;5021339;28;20487;-47
2022/09/17 00:59:17;;;;;;;1.60;1.17;;;16.90;58.30;;;;;;5026955;28;20455;-50
2022/09/17 01:01:43;;;;;;;1.77;1.10;;;16.90;58.00;;;;;;5029570;28;20519;-46
2022/09/17 01:04:20;;;;;;;1.63;1.17;;;16.90;57.90;;;;;;5028613;28;20878;-48
2022/09/17 01:07:16;;;;;;;4.40;1.00;;;17.00;57.80;;;;;;5022550;28;20258;-47
2022/09/17 01:09:42;;;;;;;1.50;1.30;;;17.00;57.70;;;;;;5020697;28;20498;-46
2022/09/17 01:12:33;;;;;;;1.23;1.13;;;17.00;57.60;;;;;;5017157;28;20483;-47
2022/09/17 01:15:39;;;;;;;1.10;1.00;;;17.00;57.70;;;;;;5017616;28;20229;-47
2022/09/17 01:18:23;;;;;;;1.60;1.20;;;17.00;57.50;;;;;;5020374;28;20719;-46
2022/09/17 01:21:16;;;;;;;1.90;1.63;;;17.00;57.40;;;;;;5021234;28;20498;-48
2022/09/17 01:23:54;;;;;;;1.60;1.10;;;17.00;57.30;;;;;;5022520;28;20454;-46
2022/09/17 01:26:57;;;;;;;2.30;1.20;;;16.90;57.50;;;;;;5026680;28;20440;-47
2022/09/17 01:30:01;;;;;;;2.30;1.20;;;16.90;57.50;;;;;;5026573;28;20785;-46
2022/09/17 01:32:48;;;;;;;1.30;1.20;;;16.70;57.90;;;;;;5019804;28;20483;-49
2022/09/17 01:35:30;;;;;;;1.53;1.10;;;16.60;58.10;;;;;;5014522;28;20542;-46
2022/09/17 01:38:06;;;;;;;2.77;1.40;;;16.50;58.30;;;;;;5022436;28;20472;-47
2022/09/17 01:40:44;;;;;;;1.63;1.30;;;16.50;58.50;;;;;;5021594;28;20568;-47
2022/09/17 01:43:25;;;;;;;1.30;1.20;;;16.70;58.20;;;;;;5026847;28;20990;-49
2022/09/17 01:46:00;;;;;;;1.70;1.30;;;16.70;58.00;;;;;;5029231;28;20518;-48
2022/09/17 01:48:32;;;;;;;2.93;1.27;;;16.80;58.00;;;;;;5029464;28;20443;-47
2022/09/17 01:51:07;;;;;;;1.80;1.20;;;16.90;57.70;;;;;;5029369;28;20500;-49
2022/09/17 01:53:50;;;;;;;2.63;1.73;;;16.90;57.70;;;;;;5026276;28;20470;-48
2022/09/17 01:56:23;;;;;;;1.83;1.40;;;16.70;58.00;;;;;;5029895;28;20456;-47
2022/09/17 01:58:56;;;;;;;1.93;1.40;;;16.60;58.40;;;;;;5022627;28;20456;-46
2022/09/17 02:01:23;;;;;;;1.90;1.20;;;16.50;58.60;;;;;;5017618;28;20987;-48
2022/09/17 02:03:55;;;;;;;1.50;1.40;;;16.50;58.80;;;;;;5029727;28;20436;-46
2022/09/17 02:06:28;;;;;;;2.03;1.37;;;16.50;59.00;;;;;;5027443;28;20444;-46
2022/09/17 02:09:00;;;;;;;3.93;1.40;;;16.50;59.10;;;;;;5028151;28;20550;-46
2022/09/17 02:11:27;;;;;;;1.70;1.30;;;16.30;59.20;;;;;;5013123;28;20843;-46
2022/09/17 02:13:57;;;;;;;1.40;1.30;;;16.40;59.20;;;;;;5023218;28;20465;-46
2022/09/17 02:16:28;;;;;;;5.33;1.40;;;16.30;59.20;;;;;;5029920;28;20464;-48
2022/09/17 02:19:15;;;;;;;2.50;1.47;;;16.20;59.40;;;;;;5026139;28;20497;-49
2022/09/17 02:22:15;;;;;;;1.50;1.40;;;16.00;59.80;;;;;;5022354;28;20483;-46
2022/09/17 02:25:05;;;;;;;3.60;2.10;;;16.10;59.80;;;;;;5022111;28;20463;-47
2022/09/17 02:27:33;;;;;;;5.30;2.10;;;16.10;59.60;;;;;;5027282;28;20494;-46
2022/09/17 02:29:59;;;;;;;2.00;1.20;;;16.10;59.60;;;;;;5024369;28;20440;-49
2022/09/17 02:32:25;;;;;;;4.23;1.37;;;16.00;59.80;;;;;;5023286;28;20565;-47
2022/09/17 02:34:50;;;;;;;1.60;1.37;;;16.00;59.80;;;;;;5024866;28;20563;-47
2022/09/17 02:37:16;;;;;;;1.90;1.30;;;15.80;60.10;;;;;;5023084;28;20285;-46
2022/09/17 02:39:42;;;;;;;2.30;1.30;;;15.70;60.60;;;;;;5023385;28;20190;-47
2022/09/17 02:42:33;;;;;;;2.30;1.47;;;15.60;60.70;;;;;;5026687;28;20221;-46
2022/09/17 02:45:13;;;;;;;2.23;1.43;;;15.60;60.80;;;;;;5019661;28;20511;-46
2022/09/17 02:48:01;;;;;;;2.30;1.60;;;15.50;60.20;;;;;;5022212;28;20445;-47
2022/09/17 02:50:39;;;;;;;2.73;1.50;;;15.40;61.20;;;;;;5030171;28;20458;-46
2022/09/17 02:53:23;;;;;;;2.23;1.40;;;15.60;60.70;;;;;;5030842;28;20588;-48
2022/09/17 02:56:09;;;;;;;2.73;1.03;;;15.70;59.90;;;;;;5020958;28;20835;-47
2022/09/17 02:58:37;;;;;;;5.50;1.40;;;15.70;60.00;;;;;;5031928;28;20451;-47
2022/09/17 03:01:11;;;;;;;1.33;1.23;;;15.70;60.00;;;;;;5030018;28;20479;-47
2022/09/17 03:03:41;;;;;;;5.20;1.20;;;15.80;59.90;;;;;;5031813;28;20519;-46
2022/09/17 03:06:07;;;;;;;4.10;1.60;;;15.90;59.60;;;;;;5029075;28;21057;-48
2022/09/17 03:08:39;;;;;;;4.13;1.40;;;15.90;59.40;;;;;;5031399;28;20454;-49
2022/09/17 03:11:07;;;;;;;3.30;1.80;;;15.90;59.40;;;;;;5029231;28;20547;-47
2022/09/17 03:13:34;;;;;;;1.50;1.40;;;16.00;59.40;;;;;;5033510;28;20440;-46
2022/09/17 03:16:01;;;;;;;2.50;1.90;;;16.00;59.10;;;;;;5029761;28;20484;-50
2022/09/17 03:18:27;;;;;;;2.17;1.30;;;16.10;59.00;;;;;;5031343;28;20439;-47
2022/09/17 03:20:52;;;;;;;4.10;1.30;;;16.10;59.00;;;;;;5029663;28;20446;-47
2022/09/17 03:23:18;;;;;;;4.50;1.60;;;16.10;58.90;;;;;;5021245;28;20202;-46
2022/09/17 03:25:45;;;;;;;6.37;1.50;;;16.00;59.10;;;;;;5029014;28;20193;-47
2022/09/17 03:28:10;;;;;;;4.13;1.37;;;15.90;59.10;;;;;;5030667;28;20189;-48
2022/09/17 03:30:36;;;;;;;4.53;1.50;;;15.90;59.10;;;;;;5028386;28;20479;-46
2022/09/17 03:33:01;;;;;;;2.40;1.40;;;16.00;58.90;;;;;;5026937;28;20367;-47
2022/09/17 03:35:27;;;;;;;4.43;1.50;;;16.00;58.90;;;;;;5030294;28;20201;-47
2022/09/17 03:37:53;;;;;;;3.20;2.03;;;16.00;59.00;;;;;;5030233;28;20225;-47
2022/09/17 03:40:18;;;;;;;2.07;1.40;;;16.10;58.90;;;;;;5029214;28;20228;-47
2022/09/17 03:42:44;;;;;;;4.97;1.60;;;16.10;58.70;;;;;;5023381;28;20212;-48
2022/09/17 03:45:10;;;;;;;2.73;1.10;;;16.00;58.90;;;;;;5025568;28;20318;-48
2022/09/17 03:47:36;;;;;;;2.70;1.27;;;16.00;59.00;;;;;;5024034;28;20198;-46
2022/09/17 03:50:03;;;;;;;2.40;1.50;;;15.80;59.30;;;;;;5022435;28;20196;-47
2022/09/17 03:52:29;;;;;;;4.80;1.40;;;15.80;59.50;;;;;;5028276;28;20510;-46
2022/09/17 03:54:54;;;;;;;1.87;1.30;;;15.70;59.50;;;;;;5030899;28;20443;-47
2022/09/17 03:57:21;;;;;;;1.83;1.40;;;15.60;59.80;;;;;;5029676;28;20617;-46
2022/09/17 03:59:47;;;;;;;5.20;1.40;;;15.60;60.00;;;;;;5030472;28;20220;-51
2022/09/17 04:02:13;;;;;;;6.20;1.63;;;15.60;59.70;;;;;;5029977;28;20463;-46
2022/09/17 04:04:38;;;;;;;3.37;1.10;;;15.70;59.80;;;;;;5031681;28;20933;-46
2022/09/17 04:07:04;;;;;;;1.30;1.13;;;15.70;59.50;;;;;;5032227;28;20194;-47
2022/09/17 04:09:30;;;;;;;3.03;1.43;;;15.80;59.50;;;;;;5030839;28;20664;-48
2022/09/17 04:11:55;;;;;;;1.30;1.17;;;15.80;59.30;;;;;;5001788;28;20270;-48
2022/09/17 04:14:21;;;;;;;2.50;1.50;;;15.70;59.40;;;;;;5026845;28;20201;-47
2022/09/17 04:16:46;;;;;;;1.77;1.57;;;15.70;59.40;;;;;;5025101;28;20192;-47
2022/09/17 04:19:12;;;;;;;2.50;1.50;;;15.70;59.40;;;;;;5029676;28;20276;-48
2022/09/17 04:21:37;;;;;;;1.83;1.73;;;15.70;59.40;;;;;;5030340;28;20198;-48
2022/09/17 04:24:03;;;;;;;2.10;1.70;;;15.70;59.50;;;;;;5030818;28;20797;-47
2022/09/17 04:26:29;;;;;;;3.27;1.73;;;15.50;59.70;;;;;;5029301;28;20351;-47
2022/09/17 04:28:55;;;;;;;14.27;8.00;;;15.40;60.10;;;;;;5027672;28;20239;-46
2022/09/17 04:31:23;;;;;;;9.73;2.67;;;15.40;60.40;;;;;;5027802;28;20253;-47
2022/09/17 04:33:49;;;;;;;2.63;1.63;;;15.30;60.70;;;;;;5030895;28;20224;-47
2022/09/17 04:36:15;;;;;;;4.50;1.77;;;15.20;60.90;;;;;;5021609;28;20448;-50
2022/09/17 04:38:40;;;;;;;5.20;1.70;;;15.10;61.40;;;;;;5031512;28;20804;-48
2022/09/17 04:41:07;;;;;;;5.77;1.87;;;15.10;61.70;;;;;;5023510;28;20203;-49
2022/09/17 04:43:33;;;;;;;3.63;1.57;;;14.90;61.70;;;;;;5028039;28;20204;-46
2022/09/17 04:45:58;;;;;;;4.30;1.40;;;14.90;62.20;;;;;;5028246;28;20443;-46
2022/09/17 04:48:24;;;;;;;1.40;1.30;;;14.80;62.40;;;;;;5027668;28;20312;-48
2022/09/17 04:50:49;;;;;;;3.27;1.63;;;14.80;62.30;;;;;;5024737;28;20243;-46
2022/09/17 04:53:15;;;;;;;5.27;1.67;;;14.90;62.20;;;;;;5030028;28;20710;-46
2022/09/17 04:55:41;;;;;;;2.13;1.60;;;15.00;62.00;;;;;;5022349;28;20205;-48
2022/09/17 04:58:07;;;;;;;1.77;1.00;;;15.00;61.90;;;;;;5025129;28;21750;-46
2022/09/17 05:00:34;;;;;;;2.83;1.50;;;14.80;62.20;;;;;;5028896;28;21010;-47
2022/09/17 05:03:00;;;;;;;3.53;1.73;;;14.70;62.40;;;;;;5027650;28;20193;-46
2022/09/17 05:05:25;;;;;;;3.90;1.80;;;14.70;62.80;;;;;;5020808;28;20947;-46
2022/09/17 05:07:51;;;;;;;6.30;1.80;;;14.50;63.20;;;;;;5027942;28;20296;-47
2022/09/17 05:10:19;;;;;;;4.97;1.83;;;14.60;63.20;;;;;;5018374;28;20249;-48
2022/09/17 05:12:52;;;;;;;2.90;1.57;;;14.50;63.10;;;;;;5023367;28;20194;-51
2022/09/17 05:15:18;;;;;;;4.70;1.93;;;14.30;63.60;;;;;;5028700;28;20452;-46
2022/09/17 05:17:44;;;;;;;4.53;1.77;;;14.30;63.60;;;;;;5028715;28;20448;-46
2022/09/17 05:20:10;;;;;;;6.73;1.80;;;14.40;63.30;;;;;;5019532;28;20948;-47
2022/09/17 05:22:46;;;;;;;4.60;2.00;;;14.30;63.40;;;;;;5029023;28;20456;-47
2022/09/17 05:25:15;;;;;;;4.13;1.80;;;14.10;63.40;;;;;;5017675;28;20451;-47
2022/09/17 05:27:41;;;;;;;4.47;1.67;;;13.90;64.20;;;;;;5023907;28;20447;-47
2022/09/17 05:30:08;;;;;;;2.27;1.70;;;14.00;64.60;;;;;;5021321;28;20440;-46
2022/09/17 05:32:37;;;;;;;4.90;1.70;;;14.10;64.80;;;;;;5025003;28;20467;-49
2022/09/17 05:35:04;;;;;;;5.07;1.87;;;14.40;68.10;;;;;;5021548;28;20569;-49
2022/09/17 05:37:30;;;;;;;4.00;1.50;;;14.60;64.10;;;;;;5025856;28;20455;-49
2022/09/17 05:39:56;;;;;;;3.33;1.90;;;14.90;65.40;;;;;;5022045;28;20447;-47
2022/09/17 05:42:22;;;;;;;5.97;1.63;;;15.30;64.70;;;;;;5021743;28;20440;-48
2022/09/17 05:44:47;;;;;;;2.83;1.80;;;15.50;60.20;;;;;;5028223;28;20199;-51
2022/09/17 05:47:13;;;;;;;6.57;1.60;;;15.30;59.90;;;;;;5027036;28;20189;-49
2022/09/17 05:49:39;;;;;;;3.40;1.63;;;15.20;59.90;;;;;;5025004;28;20255;-50
2022/09/17 05:52:04;;;;;;;2.00;1.60;;;15.20;60.40;;;;;;5026898;28;20495;-48
2022/09/17 05:54:30;;;;;;;5.23;1.70;;;15.40;59.70;;;;;;5018688;28;20197;-48
2022/09/17 05:56:56;;;;;;;1.97;1.50;;;15.50;59.20;;;;;;5030267;28;20557;-50
2022/09/17 05:59:21;;;;;;;3.47;2.23;;;15.30;59.40;;;;;;5030308;28;20679;-47
2022/09/17 06:01:48;;;;;;;2.70;1.53;;;15.50;59.50;;;;;;5029029;28;20197;-48
2022/09/17 06:04:13;;;;;;;3.50;1.90;;;15.50;59.10;;;;;;5027390;28;20208;-51
2022/09/17 06:06:40;;;;;;;3.80;2.03;;;15.50;59.10;;;;;;5031022;28;20791;-48
2022/09/17 06:09:07;;;;;;;5.97;2.00;;;15.50;59.30;;;;;;5028538;28;20201;-49
2022/09/17 06:11:33;;;;;;;8.43;2.43;;;15.50;59.00;;;;;;5025184;28;20585;-51
2022/09/17 06:13:59;;;;;;;5.87;1.67;;;15.60;58.80;;;;;;5031396;28;20471;-47
2022/09/17 06:16:24;;;;;;;5.07;2.17;;;15.50;59.10;;;;;;5022642;28;20251;-47
2022/09/17 06:18:51;;;;;;;4.87;2.60;;;15.10;59.50;;;;;;5028328;28;20200;-48
2022/09/17 06:21:18;;;;;;;2.40;1.83;;;14.80;60.20;;;;;;5023996;28;20691;-48
2022/09/17 06:23:44;;;;;;;3.13;1.87;;;14.70;61.40;;;;;;5024561;28;20454;-51
2022/09/17 06:26:11;;;;;;;2.90;2.03;;;14.70;61.30;;;;;;5026077;28;20809;-49
2022/09/17 06:28:37;;;;;;;3.90;2.27;;;14.80;61.50;;;;;;5028829;28;20454;-49
2022/09/17 06:31:04;;;;;;;3.67;2.00;;;14.90;61.10;;;;;;5025214;28;20489;-49
2022/09/17 06:33:31;;;;;;;2.80;1.60;;;14.90;61.00;;;;;;5022643;28;20275;-49
2022/09/17 06:36:03;;;;;;;5.90;2.20;;;15.10;60.80;;;;;;5027456;28;20447;-53
2022/09/17 06:38:31;;;;;;;3.30;2.17;;;15.30;60.40;;;;;;5028878;28;20443;-47
2022/09/17 06:40:57;;;;;;;4.70;1.83;;;15.30;59.80;;;;;;5019875;28;20482;-48
2022/09/17 06:43:23;;;;;;;2.93;2.03;;;15.40;59.90;;;;;;5025740;28;20779;-48
2022/09/17 06:45:52;;;;;;;6.13;1.80;;;15.50;59.60;;;;;;5019652;28;20454;-47
2022/09/17 06:48:18;;;;;;;2.77;2.20;;;15.40;59.20;;;;;;5024522;28;20452;-50
2022/09/17 06:50:44;;;;;;;2.70;1.80;;;15.40;59.40;;;;;;5025466;28;20467;-49
2022/09/17 06:53:10;;;;;;;6.50;2.13;;;15.30;59.20;;;;;;5029591;28;20443;-48
2022/09/17 06:55:35;;;;;;;3.03;1.63;;;14.70;59.50;;;;;;5028408;28;20189;-47
2022/09/17 06:58:01;;;;;;;2.20;1.63;;;14.70;60.50;;;;;;5026817;28;20216;-50
2022/09/17 07:00:26;;;;;;;2.27;1.80;;;14.90;60.70;;;;;;5024734;28;20276;-51
2022/09/17 07:02:56;;;;;;;2.17;1.47;;;14.90;60.00;;;;;;5028973;28;20675;-53
2022/09/17 07:05:23;;;;;;;4.63;2.07;;;15.00;60.10;;;;;;5027724;28;20572;-47
2022/09/17 07:07:49;;;;;;;4.30;2.10;;;15.00;59.90;;;;;;5023513;28;20444;-49
2022/09/17 07:10:15;;;;;;;5.43;1.80;;;15.00;60.00;;;;;;5022874;28;20451;-49
2022/09/17 07:12:41;;;;;;;5.93;2.00;;;15.00;60.30;;;;;;5027038;28;20888;-47
2022/09/17 07:15:09;;;;;;;5.50;2.10;;;14.80;59.70;;;;;;5024218;28;20200;-50
2022/09/17 07:17:35;;;;;;;9.23;3.10;;;14.70;60.60;;;;;;5019140;28;20959;-48
2022/09/17 07:20:00;;;;;;;2.43;1.60;;;14.70;61.30;;;;;;5024223;28;20470;-49
2022/09/17 07:22:26;;;;;;;2.43;1.70;;;14.60;61.40;;;;;;5025927;28;20853;-47
2022/09/17 07:24:51;;;;;;;4.37;1.70;;;14.70;61.10;;;;;;5023599;28;20308;-48
2022/09/17 07:27:17;;;;;;;4.67;2.00;;;14.80;61.30;;;;;;5025647;28;20204;-47
2022/09/17 07:29:43;;;;;;;5.77;1.90;;;14.70;61.60;;;;;;5021771;28;20623;-48
2022/09/17 07:32:09;;;;;;;2.17;1.80;;;15.00;62.20;;;;;;5022782;28;20245;-52
2022/09/17 07:34:34;;;;;;;4.23;2.00;;;15.10;62.50;;;;;;5020952;28;20211;-48
2022/09/17 07:37:00;;;;;;;3.60;1.77;;;15.00;61.90;;;;;;5015462;28;20949;-47
2022/09/17 07:39:25;;;;;;;5.63;2.50;;;14.80;62.60;;;;;;5024621;28;20304;-48
2022/09/17 07:41:51;;;;;;;2.83;2.37;;;14.80;63.60;;;;;;5028248;28;20636;-47
2022/09/17 07:44:17;;;;;;;5.80;2.03;;;14.50;65.80;;;;;;5013716;28;20194;-48
2022/09/17 07:46:42;;;;;;;3.07;2.20;;;14.50;67.00;;;;;;5024281;28;20182;-47
2022/09/17 07:49:08;;;;;;;4.30;2.57;;;14.60;67.70;;;;;;5028013;28;21061;-48
2022/09/17 07:51:34;;;;;;;4.73;2.30;;;14.80;67.70;;;;;;5023578;28;20876;-48
2022/09/17 07:54:01;;;;;;;6.67;2.90;;;14.90;67.80;;;;;;5023554;28;20248;-50
2022/09/17 07:56:26;;;;;;;5.37;2.47;;;15.00;67.80;;;;;;5026592;28;20201;-47
2022/09/17 07:58:52;;;;;;;4.17;2.20;;;15.00;67.60;;;;;;5032270;28;20868;-52
2022/09/17 08:01:20;;;;;;;3.10;2.27;;;15.10;67.40;;;;;;5029661;28;20201;-49
2022/09/17 08:03:53;;;;;;;2.40;2.17;;;14.50;67.10;;;;;;5018688;28;20487;-51
2022/09/17 08:06:22;;;;;;;3.40;2.67;;;14.70;69.20;;;;;;5024921;28;20810;-47
2022/09/17 08:08:48;;;;;;;6.17;3.10;;;14.70;69.00;;;;;;5027733;28;20911;-47
2022/09/17 08:11:16;;;;;;;5.70;2.80;;;14.70;68.80;;;;;;5026187;28;20490;-48
2022/09/17 08:13:42;;;;;;;7.70;2.57;;;14.90;68.60;;;;;;5023556;28;20202;-47
2022/09/17 08:16:14;;;;;;;3.33;2.20;;;15.10;68.30;;;;;;5025829;28;20492;-47
2022/09/17 08:18:42;;;;;;;3.13;2.80;;;15.10;67.70;;;;;;5030919;28;20432;-47
2022/09/17 08:21:11;;;;;;;5.50;2.37;;;15.10;67.80;;;;;;5030844;28;20444;-48
2022/09/17 08:23:38;;;;;;;5.60;2.50;;;14.90;67.30;;;;;;5031401;28;20578;-53
2022/09/17 08:26:05;;;;;;;6.03;2.47;;;14.70;67.60;;;;;;5025496;28;20523;-48
2022/09/17 08:28:31;;;;;;;7.87;3.10;;;14.70;68.50;;;;;;5029332;28;20505;-47
2022/09/17 08:31:02;;;;;;;5.00;2.43;;;14.60;68.00;;;;;;5027144;28;20587;-48
2022/09/17 08:33:32;;;;;;;3.03;2.40;;;14.80;68.50;;;;;;5032712;28;20340;-48
2022/09/17 08:35:58;;;;;;;4.43;2.43;;;14.90;67.60;;;;;;5030511;28;20444;-48
2022/09/17 08:38:37;;;;;;;3.67;2.63;;;14.90;67.90;;;;;;5030849;28;21017;-48
2022/09/17 08:41:09;;;;;;;5.33;2.83;;;15.00;67.60;;;;;;5026003;28;21012;-47
2022/09/17 08:43:42;;;;;;;4.57;2.10;;;15.20;67.70;;;;;;5029767;28;20479;-48
2022/09/17 08:46:09;;;;;;;2.53;2.33;;;15.20;67.00;;;;;;5026300;28;20474;-47
2022/09/17 08:48:51;;;;;;;5.83;3.47;;;15.00;67.30;;;;;;5028395;28;20852;-48
2022/09/17 08:51:32;;;;;;;3.40;2.50;;;15.00;66.90;;;;;;5029399;28;21038;-50
2022/09/17 08:54:16;;;;;;;5.10;2.60;;;15.00;67.40;;;;;;5024462;28;20506;-48
2022/09/17 08:56:44;;;;;;;6.63;2.83;;;15.10;67.00;;;;;;5018460;28;20456;-48
2022/09/17 08:59:37;;;;;;;6.53;2.60;;;15.50;67.90;;;;;;5027048;28;20834;-48
2022/09/17 09:02:28;;;;;;;2.67;2.00;;;15.70;67.30;;;;;;5027660;28;20959;-49
2022/09/17 09:04:57;;;;;;;6.23;2.80;;;15.60;64.50;;;;;;5025141;28;21012;-49
2022/09/17 09:07:27;;;;;;;3.53;2.20;;;15.60;63.40;;;;;;5023069;28;20444;-49
2022/09/17 09:10:03;;;;;;;5.73;2.97;;;15.70;64.90;;;;;;5022544;28;20498;-49
2022/09/17 09:12:33;;;;;;;7.23;2.50;;;15.70;63.80;;;;;;5023041;28;20495;-49
2022/09/17 09:15:04;;;;;;;5.70;3.03;;;15.60;63.20;;;;;;5023308;28;20518;-49
2022/09/17 09:17:43;;;;;;;8.13;3.30;;;15.50;63.20;;;;;;5022997;28;20962;-47
2022/09/17 09:20:18;;;;;;;3.97;2.33;;;15.60;63.50;;;;;;5023192;28;20487;-47
2022/09/17 09:22:50;;;;;;;9.60;3.00;;;15.90;62.90;;;;;;5029049;28;20451;-52
2022/09/17 09:25:25;;;;;;;8.27;3.43;;;16.10;61.90;;;;;;5025001;28;20998;-50
2022/09/17 09:28:07;;;;;;;5.40;1.90;;;16.10;61.00;;;;;;5026572;28;20447;-48
2022/09/17 09:31:07;;;;;;;12.50;3.10;;;16.30;61.40;;;;;;5020132;28;20494;-48
2022/09/17 09:33:40;;;;;;;3.07;1.93;;;16.20;61.10;;;;;;5027463;28;20967;-49
2022/09/17 09:36:10;;;;;;;7.43;2.50;;;16.10;60.50;;;;;;5020063;28;20486;-47
2022/09/17 09:38:49;;;;;;;10.70;2.87;;;16.10;61.50;;;;;;5027282;28;20808;-48
2022/09/17 09:41:39;;;;;;;7.10;2.50;;;16.40;60.90;;;;;;5028988;28;20454;-49
2022/09/17 09:44:15;;;;;;;9.70;3.23;;;16.30;61.20;;;;;;5025863;28;20436;-47
2022/09/17 09:46:56;;;;;;;6.00;2.77;;;16.30;60.80;;;;;;5024013;28;20447;-48
2022/09/17 09:49:39;;;;;;;14.97;2.80;;;16.30;60.80;;;;;;5023902;28;20456;-53
2022/09/17 09:52:12;;;;;;;12.63;3.10;;;16.10;61.10;;;;;;5017813;28;20519;-49
2022/09/17 09:54:58;;;;;;;4.10;2.50;;;16.20;60.90;;;;;;5029519;28;20440;-50
2022/09/17 09:57:43;;;;;;;4.63;2.37;;;16.20;60.90;;;;;;5020768;28;20492;-53
2022/09/17 10:00:39;;;;;;;8.00;2.20;;;16.10;60.10;;;;;;5024027;28;20444;-48
2022/09/17 10:03:19;;;;;;;4.80;2.50;;;16.10;60.40;;;;;;5026996;28;20506;-49
2022/09/17 10:05:52;;;;;;;12.10;3.67;;;16.30;60.60;;;;;;5029154;28;20513;-51
2022/09/17 10:08:18;;;;;;;3.63;1.83;;;16.10;60.20;;;;;;5029530;28;20438;-48
2022/09/17 10:10:53;;;;;;;9.40;2.10;;;16.30;60.90;;;;;;5027303;28;20484;-48
2022/09/17 10:13:19;;;;;;;10.03;2.10;;;16.40;59.90;;;;;;5024442;28;20541;-48
2022/09/17 10:15:45;;;;;;;6.73;2.10;;;16.50;59.60;;;;;;5023329;28;20458;-48
2022/09/17 10:18:22;;;;;;;3.83;1.77;;;16.50;59.10;;;;;;5026731;28;20794;-48
2022/09/17 10:20:59;;;;;;;8.80;1.80;;;16.60;58.70;;;;;;5027249;28;20248;-49
2022/09/17 10:23:32;;;;;;;5.00;2.13;;;16.70;57.50;;;;;;5028960;28;20451;-49
2022/09/17 10:25:58;;;;;;;6.93;2.40;;;16.80;57.40;;;;;;5024887;28;20923;-51
2022/09/17 10:28:33;;;;;;;9.93;2.90;;;16.50;57.80;;;;;;5024095;28;20505;-48
2022/09/17 10:31:08;;;;;;;9.33;2.13;;;16.40;57.70;;;;;;5015051;28;20291;-49
2022/09/17 10:33:38;;;;;;;3.27;2.00;;;16.40;58.10;;;;;;5028458;28;21090;-48
2022/09/17 10:36:12;;;;;;;2.97;2.10;;;16.40;58.40;;;;;;5023401;28;20951;-49
2022/09/17 10:38:37;;;;;;;5.50;2.20;;;16.60;59.00;;;;;;5020051;28;20460;-48
2022/09/17 10:41:29;;;;;;;2.80;1.70;;;16.80;58.20;;;;;;5026091;28;20452;-49
2022/09/17 10:43:55;;;;;;;3.40;1.90;;;16.90;57.90;;;;;;5019406;28;20209;-49
2022/09/17 10:46:26;;;;;;;6.03;2.40;;;16.90;56.90;;;;;;5022319;28;20819;-51
2022/09/17 10:49:17;;;;;;;2.67;2.07;;;17.10;56.60;;;;;;5017609;28;20186;-49
2022/09/17 10:51:43;;;;;;;9.53;2.73;;;17.30;56.40;;;;;;5025302;28;20488;-49
2022/09/17 10:54:12;;;;;;;2.90;1.73;;;17.40;56.60;;;;;;5029075;28;20529;-52
2022/09/17 10:56:42;;;;;;;4.40;2.17;;;17.70;56.20;;;;;;5022997;28;20439;-50
2022/09/17 10:59:36;;;;;;;4.60;1.80;;;17.70;55.20;;;;;;5028486;28;20482;-48
2022/09/17 11:02:21;;;;;;;4.20;1.70;;;18.00;54.80;;;;;;5020692;28;20436;-51
2022/09/17 11:05:32;;;;;;;2.70;1.83;;;18.00;53.60;;;;;;5016230;28;21079;-49
2022/09/17 11:08:16;;;;;;;7.37;2.30;;;18.10;54.30;;;;;;5027237;28;20459;-48
2022/09/17 11:11:00;;;;;;;3.20;1.67;;;18.20;53.30;;;;;;5026164;28;20970;-49
2022/09/17 11:13:44;;;;;;;3.30;1.70;;;18.00;52.30;;;;;;5025815;28;20452;-48
2022/09/17 11:16:50;;;;;;;2.90;1.90;;;18.00;52.60;;;;;;5030606;28;20462;-50
2022/09/17 11:19:29;;;;;;;1.90;1.20;;;18.20;52.60;;;;;;5032875;28;20454;-48
2022/09/17 11:22:28;;;;;;;5.73;1.90;;;18.30;50.70;;;;;;5029446;28;20886;-48
2022/09/17 11:24:54;;;;;;;4.53;1.40;;;18.00;50.40;;;;;;5030754;28;20517;-49
2022/09/17 11:27:29;;;;;;;4.27;1.90;;;18.00;50.90;;;;;;5031076;28;20490;-49
2022/09/17 11:30:00;;;;;;;1.53;1.43;;;18.00;50.20;;;;;;5017067;28;20609;-50
2022/09/17 11:32:42;;;;;;;1.60;1.33;;;17.80;50.00;;;;;;5031256;28;20498;-49
2022/09/17 11:35:14;;;;;;;3.23;1.70;;;18.10;50.50;;;;;;5031600;28;20444;-50
2022/09/17 11:37:52;;;;;;;4.73;1.63;;;18.00;49.50;;;;;;5030768;28;20444;-49
2022/09/17 11:40:39;;;;;;;2.80;1.40;;;18.30;50.70;;;;;;5026230;28;20875;-49
2022/09/17 11:43:20;;;;;;;5.87;1.40;;;18.70;49.50;;;;;;5018916;28;20444;-51
2022/09/17 11:46:17;;;;;;;3.47;1.60;;;18.80;48.70;;;;;;5027940;28;20450;-51
2022/09/17 11:48:56;;;;;;;3.53;1.60;;;18.50;48.30;;;;;;5032034;28;20458;-50
2022/09/17 11:51:27;;;;;;;2.23;1.73;;;18.50;49.10;;;;;;5028350;28;20487;-48
2022/09/17 11:54:24;;;;;;;2.57;1.63;;;18.60;52.00;;;;;;5019754;28;20531;-52
2022/09/17 11:56:52;;;;;;;6.23;1.93;;;18.80;52.40;;;;;;5019593;28;20459;-50
2022/09/17 11:59:52;;;;;;;6.73;2.63;;;19.10;53.10;;;;;;5027860;28;20444;-50
2022/09/17 12:02:20;;;;;;;2.10;1.90;;;18.90;51.40;;;;;;5023949;28;20471;-50
2022/09/17 12:04:51;;;;;;;2.37;1.50;;;18.60;51.50;;;;;;5019441;28;20549;-51
2022/09/17 12:07:32;;;;;;;2.33;1.70;;;18.70;51.90;;;;;;5026165;28;20450;-49
2022/09/17 12:10:42;;;;;;;3.03;1.50;;;18.60;52.00;;;;;;5026085;28;20440;-48
2022/09/17 12:13:30;;;;;;;5.40;1.50;;;18.50;51.20;;;;;;5025018;28;20447;-49
2022/09/17 12:16:17;;;;;;;3.10;1.40;;;18.10;51.70;;;;;;5014548;28;20455;-49
2022/09/17 12:18:45;;;;;;;3.63;1.80;;;17.80;53.40;;;;;;5020963;28;20547;-48
2022/09/17 12:21:17;;;;;;;3.13;1.67;;;17.60;54.30;;;;;;5029542;28;20506;-49
2022/09/17 12:23:49;;;;;;;2.23;1.80;;;17.70;54.90;;;;;;5022666;28;20483;-48
2022/09/17 12:26:17;;;;;;;3.80;1.97;;;17.80;55.00;;;;;;5028703;28;20479;-49
2022/09/17 12:28:56;;;;;;;3.73;1.30;;;17.90;54.70;;;;;;5030848;28;20459;-50
2022/09/17 12:31:35;;;;;;;4.13;1.20;;;17.80;54.50;;;;;;5031024;28;20990;-48
2022/09/17 12:34:28;;;;;;;1.23;1.13;;;17.90;53.30;;;;;;5027833;28;20922;-48
2022/09/17 12:37:27;;;;;;;4.33;1.63;;;17.70;52.90;;;;;;5007428;28;20551;-49
2022/09/17 12:40:06;;;;;;;1.63;1.20;;;17.30;52.50;;;;;;5027354;28;20527;-48
2022/09/17 12:42:53;;;;;;;1.73;0.93;;;17.30;54.90;;;;;;5025149;28;20463;-49
2022/09/17 12:45:48;;;;;;;3.57;1.10;;;17.20;55.50;;;;;;5028322;28;20459;-50
2022/09/17 12:48:27;;;;;;;2.20;1.20;;;17.20;55.30;;;;;;5020044;28;20559;-49
2022/09/17 12:51:13;;;;;;;2.40;1.73;;;17.40;55.60;;;;;;5020169;28;20483;-48
2022/09/17 12:53:55;;;;;;;2.53;1.70;;;17.50;56.20;;;;;;5027928;28;20456;-50
2022/09/17 12:56:38;;;;;;;4.90;1.73;;;17.70;55.30;;;;;;5023793;28;20452;-49
2022/09/17 12:59:18;;;;;;;3.60;1.90;;;17.70;55.20;;;;;;5025855;28;21495;-51
2022/09/17 13:01:51;;;;;;;4.63;1.67;;;17.90;54.90;;;;;;5028442;28;20817;-48
2022/09/17 13:04:32;;;;;;;4.60;1.57;;;18.00;54.40;;;;;;5029404;28;20459;-50
2022/09/17 13:07:19;;;;;;;2.00;1.10;;;17.70;53.90;;;;;;5027249;28;20475;-48
2022/09/17 13:10:05;;;;;;;2.87;1.10;;;17.60;53.40;;;;;;5026701;28;20447;-49
2022/09/17 13:12:56;;;;;;;1.17;1.07;;;17.60;52.40;;;;;;5022532;28;20496;-49
2022/09/17 13:15:56;;;;;;;4.80;1.47;;;17.70;52.60;;;;;;5009246;28;20477;-48